Time;durP1;ratioP1;P1;durP2;ratioP2;P2;SDS_P1;SDS_P2;PMS_P1;PMS_P2;Temp;Humidity;BMP_temperature;BMP_pressure;BME280_temperature;BME280_humidity;BME280_pressure;Samples;Min_cycle;Max_cycle;Signal;HPM_P1;HPM_P2
2023/05/12 00:01:20;;;;;;;40.95;7.43;;;;;;;;;;4989166;28;20078;-42
2023/05/12 00:03:47;;;;;;;43.67;8.18;;;;;;;;;;4989147;28;20042;-42
2023/05/12 00:06:14;;;;;;;50.80;7.97;;;;;;;;;;4986662;28;20022;-44
2023/05/12 00:08:41;;;;;;;42.00;8.23;;;;;;;;;;4984973;28;20042;-41
2023/05/12 00:11:08;;;;;;;43.50;8.77;;;;;;;;;;4977216;28;20551;-43
2023/05/12 00:13:35;;;;;;;49.88;9.65;;;;;;;;;;4984232;28;20034;-44
2023/05/12 00:16:03;;;;;;;42.38;8.82;;;;;;;;;;4977238;28;20035;-41
2023/05/12 00:18:30;;;;;;;57.15;9.52;;;;;;;;;;4991997;28;20041;-42
2023/05/12 00:20:57;;;;;;;46.75;8.82;;;;;;;;;;4992885;28;20029;-42
2023/05/12 00:23:24;;;;;;;48.25;9.80;;;;;;;;;;4993111;28;20032;-41
2023/05/12 00:25:51;;;;;;;42.08;8.25;;;;;;;;;;4975574;28;20026;-42
2023/05/12 00:28:19;;;;;;;55.58;10.95;;;;;;;;;;4992444;28;20122;-44
2023/05/12 00:30:46;;;;;;;62.75;12.20;;;;;;;;;;4992806;28;20026;-41
2023/05/12 00:33:13;;;;;;;68.93;14.43;;;;;;;;;;4992412;28;20038;-41
2023/05/12 00:35:40;;;;;;;61.35;13.88;;;;;;;;;;4992365;28;20042;-41
2023/05/12 00:38:07;;;;;;;73.30;15.63;;;;;;;;;;4974814;28;20037;-42
2023/05/12 00:40:34;;;;;;;74.07;17.20;;;;;;;;;;4992373;28;20042;-41
2023/05/12 00:43:01;;;;;;;84.78;21.85;;;;;;;;;;4992192;28;20117;-41
2023/05/12 00:45:28;;;;;;;117.13;27.35;;;;;;;;;;4992123;28;20030;-42
2023/05/12 00:47:56;;;;;;;127.45;31.02;;;;;;;;;;4992386;28;20471;-44
2023/05/12 00:50:24;;;;;;;121.68;32.90;;;;;;;;;;4991641;28;20530;-41
2023/05/12 00:52:51;;;;;;;129.80;36.97;;;;;;;;;;4992243;28;20033;-41
2023/05/12 00:55:19;;;;;;;147.90;45.35;;;;;;;;;;4991727;28;20049;-43
2023/05/12 00:57:46;;;;;;;145.18;47.22;;;;;;;;;;4992084;28;20034;-41
2023/05/12 01:00:13;;;;;;;135.75;46.28;;;;;;;;;;4991955;28;20033;-41
2023/05/12 01:02:40;;;;;;;164.82;53.45;;;;;;;;;;4994064;28;20080;-42
2023/05/12 01:05:08;;;;;;;135.85;50.15;;;;;;;;;;4982447;28;20034;-43
2023/05/12 01:07:36;;;;;;;140.38;46.13;;;;;;;;;;4991609;28;20034;-43
2023/05/12 01:10:03;;;;;;;134.40;45.15;;;;;;;;;;4991539;28;20030;-41
2023/05/12 01:12:31;;;;;;;129.15;44.47;;;;;;;;;;4991712;28;20125;-45
2023/05/12 01:14:58;;;;;;;119.95;44.33;;;;;;;;;;4991059;28;20045;-45
2023/05/12 01:17:29;;;;;;;123.63;42.88;;;;;;;;;;5008620;22;20061;-51
2023/05/12 01:20:02;;;;;;;133.93;43.47;;;;;;;;;;4991446;28;20030;-52
2023/05/12 01:22:33;;;;;;;110.32;41.92;;;;;;;;;;4977971;28;20031;-50
2023/05/12 01:25:04;;;;;;;129.48;41.05;;;;;;;;;;4991284;28;20121;-49
2023/05/12 01:27:32;;;;;;;109.07;38.75;;;;;;;;;;4991362;28;20030;-51
2023/05/12 01:30:01;;;;;;;87.85;36.38;;;;;;;;;;4991417;28;20048;-49
2023/05/12 01:32:29;;;;;;;101.78;36.20;;;;;;;;;;4991814;28;20026;-50
2023/05/12 01:34:56;;;;;;;101.65;36.38;;;;;;;;;;4991052;28;20460;-50
2023/05/12 01:37:26;;;;;;;95.78;34.00;;;;;;;;;;4985502;28;20035;-53
2023/05/12 01:39:54;;;;;;;99.63;35.45;;;;;;;;;;4984137;28;20535;-55
2023/05/12 01:42:21;;;;;;;90.22;32.88;;;;;;;;;;4990204;28;20129;-51
2023/05/12 01:44:48;;;;;;;90.93;33.50;;;;;;;;;;4990038;28;20038;-52
2023/05/12 01:47:15;;;;;;;85.68;32.25;;;;;;;;;;4990048;28;20503;-50
2023/05/12 01:49:42;;;;;;;86.18;32.40;;;;;;;;;;4989872;28;20026;-53
2023/05/12 01:52:09;;;;;;;84.15;30.55;;;;;;;;;;4990551;28;20024;-53
2023/05/12 01:54:36;;;;;;;87.20;32.20;;;;;;;;;;4990442;28;20035;-52
2023/05/12 01:57:03;;;;;;;71.88;29.17;;;;;;;;;;4989863;28;20035;-54
2023/05/12 01:59:30;;;;;;;80.22;29.75;;;;;;;;;;4990150;28;20030;-54
2023/05/12 02:01:57;;;;;;;79.18;27.73;;;;;;;;;;4989400;28;20703;-51
2023/05/12 02:04:24;;;;;;;73.05;27.42;;;;;;;;;;4992052;28;20030;-51
2023/05/12 02:06:51;;;;;;;74.68;26.90;;;;;;;;;;4992076;28;20026;-50
2023/05/12 02:09:18;;;;;;;74.47;26.52;;;;;;;;;;4992179;28;20049;-51
2023/05/12 02:11:45;;;;;;;69.90;26.45;;;;;;;;;;4992140;28;20034;-51
2023/05/12 02:14:12;;;;;;;63.40;26.58;;;;;;;;;;4991809;28;20023;-52
2023/05/12 02:16:39;;;;;;;65.10;25.42;;;;;;;;;;4992076;28;20073;-54
2023/05/12 02:19:06;;;;;;;65.95;25.40;;;;;;;;;;4953470;29;20043;-51
2023/05/12 02:21:33;;;;;;;70.13;24.05;;;;;;;;;;4968099;28;20480;-52
2023/05/12 02:24:00;;;;;;;59.05;23.85;;;;;;;;;;4953434;29;20019;-50
2023/05/12 02:26:27;;;;;;;71.10;24.15;;;;;;;;;;4953310;29;20027;-51
2023/05/12 02:28:54;;;;;;;57.83;23.40;;;;;;;;;;4953300;29;20493;-50
2023/05/12 02:31:21;;;;;;;66.97;23.48;;;;;;;;;;4953163;29;20786;-50
2023/05/12 02:33:49;;;;;;;64.03;22.92;;;;;;;;;;4953209;28;20540;-49
2023/05/12 02:36:16;;;;;;;57.85;23.33;;;;;;;;;;4953153;28;20481;-52
2023/05/12 02:38:43;;;;;;;58.78;22.85;;;;;;;;;;4953203;29;20053;-53
2023/05/12 02:41:10;;;;;;;61.47;22.55;;;;;;;;;;4953213;29;20764;-53
2023/05/12 02:43:37;;;;;;;49.55;20.90;;;;;;;;;;4953177;29;20066;-54
2023/05/12 02:46:04;;;;;;;56.13;21.88;;;;;;;;;;4952824;28;20429;-55
2023/05/12 02:48:31;;;;;;;52.97;20.65;;;;;;;;;;4952981;28;20768;-53
2023/05/12 02:50:58;;;;;;;47.65;20.20;;;;;;;;;;4949744;28;20035;-51
2023/05/12 02:53:26;;;;;;;46.45;19.30;;;;;;;;;;4947458;29;20027;-50
2023/05/12 02:55:53;;;;;;;46.20;18.42;;;;;;;;;;4946495;29;20042;-54
2023/05/12 02:58:20;;;;;;;40.83;18.20;;;;;;;;;;4945515;28;20019;-54
2023/05/12 03:00:47;;;;;;;46.17;18.58;;;;;;;;;;4945746;29;20031;-50
2023/05/12 03:03:14;;;;;;;46.13;18.30;;;;;;;;;;4946307;28;20069;-55
2023/05/12 03:05:41;;;;;;;38.00;17.92;;;;;;;;;;4947249;29;20035;-50
2023/05/12 03:08:08;;;;;;;45.65;18.23;;;;;;;;;;4945617;29;20390;-52
2023/05/12 03:10:37;;;;;;;46.28;18.15;;;;;;;;;;4946028;28;20071;-53
2023/05/12 03:13:04;;;;;;;44.28;17.25;;;;;;;;;;4947238;29;20031;-50
2023/05/12 03:15:31;;;;;;;38.58;16.52;;;;;;;;;;4945826;29;20036;-50
2023/05/12 03:17:57;;;;;;;37.80;16.67;;;;;;;;;;4966094;28;20057;-50
2023/05/12 03:20:25;;;;;;;36.28;16.05;;;;;;;;;;4985682;28;20037;-54
2023/05/12 03:22:52;;;;;;;40.20;16.00;;;;;;;;;;4984431;28;20468;-52
2023/05/12 03:25:19;;;;;;;35.75;15.90;;;;;;;;;;4983866;28;20038;-52
2023/05/12 03:27:46;;;;;;;36.15;15.10;;;;;;;;;;4982913;28;20046;-50
2023/05/12 03:30:13;;;;;;;36.25;14.80;;;;;;;;;;4975430;28;20023;-54
2023/05/12 03:32:41;;;;;;;42.17;15.60;;;;;;;;;;4975324;28;20396;-53
2023/05/12 03:35:08;;;;;;;34.92;13.85;;;;;;;;;;4975225;28;20035;-51
2023/05/12 03:37:35;;;;;;;31.63;13.23;;;;;;;;;;4975167;28;20058;-51
2023/05/12 03:40:02;;;;;;;34.80;14.00;;;;;;;;;;4975404;28;20361;-54
2023/05/12 03:42:29;;;;;;;34.72;13.25;;;;;;;;;;4975163;28;20796;-51
2023/05/12 03:44:56;;;;;;;35.03;14.18;;;;;;;;;;4975096;28;20053;-52
2023/05/12 03:47:23;;;;;;;30.15;12.10;;;;;;;;;;4975025;28;20101;-53
2023/05/12 03:49:50;;;;;;;33.08;12.80;;;;;;;;;;4975010;28;20049;-52
2023/05/12 03:52:17;;;;;;;30.17;12.77;;;;;;;;;;4975028;28;20054;-53
2023/05/12 03:54:44;;;;;;;34.90;12.57;;;;;;;;;;4974918;28;20042;-53
2023/05/12 03:57:12;;;;;;;27.38;12.52;;;;;;;;;;4974804;28;20386;-52
2023/05/12 03:59:40;;;;;;;25.38;11.75;;;;;;;;;;4974882;28;20022;-49
2023/05/12 04:02:10;;;;;;;28.08;12.05;;;;;;;;;;4973802;28;20026;-51
2023/05/12 04:04:37;;;;;;;28.63;11.30;;;;;;;;;;4974695;28;20105;-49
2023/05/12 04:07:05;;;;;;;24.33;11.38;;;;;;;;;;4983470;28;20113;-50
2023/05/12 04:09:32;;;;;;;32.97;11.95;;;;;;;;;;4994041;28;20053;-54
2023/05/12 04:11:59;;;;;;;26.95;11.65;;;;;;;;;;4994056;28;20442;-49
2023/05/12 04:14:27;;;;;;;27.02;11.20;;;;;;;;;;4993994;28;20033;-50
2023/05/12 04:16:54;;;;;;;22.65;9.88;;;;;;;;;;4993798;28;20014;-50
2023/05/12 04:19:21;;;;;;;26.05;11.70;;;;;;;;;;4993903;28;20026;-51
2023/05/12 04:21:48;;;;;;;24.75;10.45;;;;;;;;;;4993858;28;20057;-50
2023/05/12 04:24:15;;;;;;;25.70;10.77;;;;;;;;;;4993863;28;20026;-49
2023/05/12 04:26:42;;;;;;;23.15;10.27;;;;;;;;;;4993714;28;20027;-50
2023/05/12 04:29:09;;;;;;;23.20;10.30;;;;;;;;;;4993757;28;20030;-53
2023/05/12 04:31:36;;;;;;;23.20;10.13;;;;;;;;;;4993685;28;20034;-50
2023/05/12 04:34:03;;;;;;;25.40;10.93;;;;;;;;;;4993608;28;20381;-52
2023/05/12 04:36:31;;;;;;;28.10;10.25;;;;;;;;;;4993355;28;20042;-50
2023/05/12 04:38:58;;;;;;;20.25;9.13;;;;;;;;;;4993449;28;20101;-49
2023/05/12 04:41:24;;;;;;;22.88;9.73;;;;;;;;;;4993504;28;20496;-51
2023/05/12 04:43:51;;;;;;;22.45;9.70;;;;;;;;;;4993416;28;20030;-49
2023/05/12 04:46:18;;;;;;;20.55;9.55;;;;;;;;;;4993354;28;20034;-49
2023/05/12 04:48:45;;;;;;;19.35;9.27;;;;;;;;;;4993324;28;20045;-49
2023/05/12 04:51:12;;;;;;;20.42;8.73;;;;;;;;;;4993266;28;20392;-50
2023/05/12 04:53:39;;;;;;;19.08;8.98;;;;;;;;;;4993277;28;20033;-50
2023/05/12 04:56:06;;;;;;;19.45;9.40;;;;;;;;;;4993157;28;20439;-52
2023/05/12 04:58:33;;;;;;;18.52;7.95;;;;;;;;;;4993074;28;20026;-49
2023/05/12 05:01:00;;;;;;;18.77;8.52;;;;;;;;;;4993030;28;20368;-54
2023/05/12 05:03:28;;;;;;;16.20;8.13;;;;;;;;;;4993137;28;20105;-51
2023/05/12 05:05:54;;;;;;;23.38;8.43;;;;;;;;;;4993061;28;20483;-50
2023/05/12 05:08:21;;;;;;;20.08;8.70;;;;;;;;;;4992913;28;20030;-52
2023/05/12 05:10:48;;;;;;;16.70;8.85;;;;;;;;;;4993065;28;20092;-51
2023/05/12 05:13:15;;;;;;;22.85;8.52;;;;;;;;;;4992742;28;20076;-51
2023/05/12 05:15:52;;;;;;;16.83;7.65;;;;;;;;;;4992803;28;20034;-51
2023/05/12 05:18:20;;;;;;;17.10;7.68;;;;;;;;;;4975122;28;20054;-53
2023/05/12 05:20:47;;;;;;;17.30;7.85;;;;;;;;;;4992738;28;20439;-53
2023/05/12 05:23:14;;;;;;;15.52;7.38;;;;;;;;;;4992770;28;20073;-51
2023/05/12 05:25:41;;;;;;;15.75;7.25;;;;;;;;;;4992618;28;20026;-52
2023/05/12 05:28:08;;;;;;;16.75;7.75;;;;;;;;;;4992584;28;20023;-51
2023/05/12 05:30:35;;;;;;;14.90;7.10;;;;;;;;;;4992654;28;20029;-53
2023/05/12 05:33:02;;;;;;;18.02;7.57;;;;;;;;;;4992663;28;20488;-51
2023/05/12 05:35:30;;;;;;;13.32;6.97;;;;;;;;;;4992544;28;20038;-50
2023/05/12 05:37:57;;;;;;;15.13;7.35;;;;;;;;;;4992482;28;20097;-52
2023/05/12 05:40:24;;;;;;;16.00;7.20;;;;;;;;;;4974952;28;20023;-51
2023/05/12 05:42:51;;;;;;;14.60;6.88;;;;;;;;;;4992465;28;20030;-52
2023/05/12 05:45:18;;;;;;;16.08;7.18;;;;;;;;;;4992477;28;20045;-54
2023/05/12 05:47:48;;;;;;;17.52;7.10;;;;;;;;;;4992142;28;20053;-52
2023/05/12 05:50:15;;;;;;;15.70;6.82;;;;;;;;;;4992366;28;20464;-51
2023/05/12 05:52:42;;;;;;;15.75;6.68;;;;;;;;;;4974993;28;20057;-54
2023/05/12 05:55:10;;;;;;;12.77;6.43;;;;;;;;;;4992291;28;20045;-52
2023/05/12 05:57:37;;;;;;;13.45;6.60;;;;;;;;;;4992240;28;20046;-52
2023/05/12 06:00:05;;;;;;;15.13;6.57;;;;;;;;;;4992347;28;20018;-50
2023/05/12 06:02:32;;;;;;;14.38;6.20;;;;;;;;;;4990942;28;20041;-50
2023/05/12 06:04:59;;;;;;;14.93;6.72;;;;;;;;;;4991767;28;20026;-50
2023/05/12 06:07:26;;;;;;;12.13;6.43;;;;;;;;;;4992156;28;20033;-54
2023/05/12 06:09:53;;;;;;;13.75;6.82;;;;;;;;;;4992153;28;20069;-49
2023/05/12 06:12:21;;;;;;;12.95;5.63;;;;;;;;;;4983612;28;20433;-50
2023/05/12 06:14:48;;;;;;;11.40;5.70;;;;;;;;;;4992065;28;20031;-54
2023/05/12 06:17:15;;;;;;;11.55;5.80;;;;;;;;;;4991824;28;20065;-50
2023/05/12 06:19:46;;;;;;;12.00;5.57;;;;;;;;;;4992113;28;20018;-49
2023/05/12 06:22:13;;;;;;;12.48;5.75;;;;;;;;;;4992109;28;20088;-51
2023/05/12 06:24:41;;;;;;;12.60;5.60;;;;;;;;;;4992267;28;20165;-50
2023/05/12 06:27:08;;;;;;;14.55;6.28;;;;;;;;;;4995907;28;20196;-50
2023/05/12 06:29:35;;;;;;;13.63;6.03;;;;;;;;;;4995621;28;20038;-49
2023/05/12 06:32:05;;;;;;;12.00;5.18;;;;;;;;;;4995901;28;20022;-49
2023/05/12 06:34:32;;;;;;;10.38;5.45;;;;;;;;;;4995679;28;20030;-51
2023/05/12 06:36:59;;;;;;;13.57;6.15;;;;;;;;;;4995723;28;20480;-50
2023/05/12 06:39:26;;;;;;;10.82;5.47;;;;;;;;;;4995776;28;20023;-50
2023/05/12 06:41:53;;;;;;;10.77;5.40;;;;;;;;;;4995610;28;20149;-50
2023/05/12 06:44:20;;;;;;;10.05;5.22;;;;;;;;;;4995702;28;20488;-52
2023/05/12 06:46:47;;;;;;;10.65;4.93;;;;;;;;;;4978039;28;20408;-50
2023/05/12 06:49:14;;;;;;;11.55;5.40;;;;;;;;;;4995676;28;20500;-49
2023/05/12 06:51:41;;;;;;;9.70;5.18;;;;;;;;;;4978095;28;20046;-50
2023/05/12 06:54:08;;;;;;;12.13;5.78;;;;;;;;;;4995594;28;20494;-49
2023/05/12 06:56:35;;;;;;;12.25;5.00;;;;;;;;;;4995403;28;20034;-50
2023/05/12 06:59:03;;;;;;;12.50;5.20;;;;;;;;;;4995464;28;20030;-50
2023/05/12 07:01:31;;;;;;;8.82;4.38;;;;;;;;;;4995366;28;20121;-51
2023/05/12 07:03:58;;;;;;;11.45;5.43;;;;;;;;;;4995368;28;20033;-55
2023/05/12 07:06:26;;;;;;;7.82;4.72;;;;;;;;;;4995115;28;20810;-51
2023/05/12 07:08:53;;;;;;;9.32;4.93;;;;;;;;;;4995170;28;20054;-53
2023/05/12 07:11:20;;;;;;;10.00;4.90;;;;;;;;;;4995160;28;20023;-53
2023/05/12 07:13:48;;;;;;;12.68;4.53;;;;;;;;;;4995175;28;20073;-53
2023/05/12 07:16:15;;;;;;;8.85;4.40;;;;;;;;;;4977402;28;20042;-52
2023/05/12 07:18:42;;;;;;;9.43;4.80;;;;;;;;;;4994916;28;20042;-53
2023/05/12 07:21:09;;;;;;;10.15;4.68;;;;;;;;;;4994939;28;20113;-53
2023/05/12 07:23:37;;;;;;;9.93;4.78;;;;;;;;;;4995022;28;20510;-53
2023/05/12 07:26:05;;;;;;;11.90;4.38;;;;;;;;;;4977300;28;20053;-53
2023/05/12 07:28:34;;;;;;;8.60;4.45;;;;;;;;;;4994935;28;20424;-54
2023/05/12 07:31:08;;;;;;;8.15;4.13;;;;;;;;;;4994753;28;20040;-54
2023/05/12 07:33:36;;;;;;;9.68;4.40;;;;;;;;;;4994582;28;20061;-51
2023/05/12 07:36:03;;;;;;;11.35;4.47;;;;;;;;;;4993922;28;20094;-52
2023/05/12 07:38:31;;;;;;;9.00;4.18;;;;;;;;;;4994066;28;20027;-54
2023/05/12 07:40:59;;;;;;;9.88;4.25;;;;;;;;;;4994604;28;20443;-53
2023/05/12 07:43:26;;;;;;;9.65;4.50;;;;;;;;;;4994639;28;20023;-54
2023/05/12 07:45:54;;;;;;;9.30;4.57;;;;;;;;;;4994441;28;20026;-51
2023/05/12 07:48:22;;;;;;;8.30;4.03;;;;;;;;;;4994343;28;20776;-54
2023/05/12 07:50:48;;;;;;;7.78;3.85;;;;;;;;;;4994437;28;20027;-52
2023/05/12 07:53:15;;;;;;;8.65;3.90;;;;;;;;;;4994480;28;20035;-53
2023/05/12 07:55:42;;;;;;;9.50;4.55;;;;;;;;;;4994289;28;20049;-54
2023/05/12 07:58:11;;;;;;;8.57;4.07;;;;;;;;;;4994186;28;20101;-53
2023/05/12 08:00:38;;;;;;;6.68;3.70;;;;;;;;;;4994226;28;20038;-51
2023/05/12 08:03:06;;;;;;;7.50;4.03;;;;;;;;;;4994255;28;20109;-55
2023/05/12 08:05:33;;;;;;;8.07;3.58;;;;;;;;;;4994424;28;20042;-53
2023/05/12 08:08:00;;;;;;;7.68;4.10;;;;;;;;;;4994086;28;20053;-52
2023/05/12 08:10:28;;;;;;;7.88;3.92;;;;;;;;;;4994149;28;20030;-52
2023/05/12 08:12:56;;;;;;;9.43;3.88;;;;;;;;;;4994021;28;20473;-53
2023/05/12 08:15:23;;;;;;;10.70;3.80;;;;;;;;;;4994156;28;20053;-52
2023/05/12 08:17:50;;;;;;;9.98;3.72;;;;;;;;;;4993513;28;20100;-51
2023/05/12 08:20:17;;;;;;;6.93;3.95;;;;;;;;;;4993920;28;20113;-53
2023/05/12 08:22:46;;;;;;;7.40;3.70;;;;;;;;;;4994062;28;20423;-50
2023/05/12 08:25:13;;;;;;;6.35;3.65;;;;;;;;;;4993786;28;20448;-55
2023/05/12 08:27:40;;;;;;;7.57;3.80;;;;;;;;;;4993708;28;20113;-54
2023/05/12 08:30:08;;;;;;;8.68;4.15;;;;;;;;;;4993757;28;20536;-52
2023/05/12 08:32:35;;;;;;;7.18;3.50;;;;;;;;;;4993717;28;20026;-53
2023/05/12 08:35:02;;;;;;;7.47;3.60;;;;;;;;;;4993492;28;20500;-50
2023/05/12 08:37:29;;;;;;;7.10;3.80;;;;;;;;;;4993459;28;20420;-51
2023/05/12 08:39:56;;;;;;;7.63;3.60;;;;;;;;;;4993513;28;20484;-52
2023/05/12 08:42:39;;;;;;;5.20;3.30;;;;;;;;;;4993523;28;20049;-51
2023/05/12 08:45:07;;;;;;;8.77;3.60;;;;;;;;;;4993521;28;20038;-50
2023/05/12 08:47:35;;;;;;;7.32;3.35;;;;;;;;;;4992901;28;20038;-51
2023/05/12 08:50:02;;;;;;;6.57;3.30;;;;;;;;;;4992405;28;20038;-50
2023/05/12 08:52:30;;;;;;;6.93;3.38;;;;;;;;;;4975701;28;20173;-54
2023/05/12 08:54:57;;;;;;;9.00;3.13;;;;;;;;;;4993206;28;20076;-54
2023/05/12 08:57:24;;;;;;;8.10;3.10;;;;;;;;;;4993223;28;20377;-52
2023/05/12 08:59:55;;;;;;;5.55;3.00;;;;;;;;;;4992525;28;20479;-51
2023/05/12 09:02:25;;;;;;;4.60;2.75;;;;;;;;;;4992404;28;20018;-49
2023/05/12 09:04:53;;;;;;;9.45;3.20;;;;;;;;;;4992454;28;20031;-49
2023/05/12 09:07:25;;;;;;;7.45;3.05;;;;;;;;;;4992411;28;20134;-50
2023/05/12 09:09:58;;;;;;;10.57;3.13;;;;;;;;;;4989696;28;20034;-51
2023/05/12 09:12:26;;;;;;;17.17;3.95;;;;;;;;;;4990536;28;20398;-50
2023/05/12 09:15:13;;;;;;;20.90;4.22;;;;;;;;;;4991419;28;20038;-51
2023/05/12 09:17:40;;;;;;;13.07;3.83;;;;;;;;;;4988503;28;20049;-49
2023/05/12 09:20:09;;;;;;;14.50;3.63;;;;;;;;;;4991405;28;20030;-49
2023/05/12 09:22:36;;;;;;;17.67;3.75;;;;;;;;;;4991196;28;20137;-53
2023/05/12 09:25:16;;;;;;;18.70;3.55;;;;;;;;;;4991254;28;20034;-50
2023/05/12 09:27:43;;;;;;;11.60;3.72;;;;;;;;;;4991309;28;20041;-51
2023/05/12 09:30:12;;;;;;;13.13;3.15;;;;;;;;;;4991825;28;20074;-49
2023/05/12 09:32:39;;;;;;;11.48;3.20;;;;;;;;;;4992066;28;20061;-53
2023/05/12 09:35:10;;;;;;;14.77;3.30;;;;;;;;;;4992427;28;20124;-50
2023/05/12 09:37:37;;;;;;;11.77;2.97;;;;;;;;;;4992037;28;20031;-50
2023/05/12 09:40:06;;;;;;;11.63;3.00;;;;;;;;;;4986462;28;20118;-51
2023/05/12 09:42:34;;;;;;;9.18;2.92;;;;;;;;;;4980260;28;20035;-51
2023/05/12 09:45:04;;;;;;;8.88;2.50;;;;;;;;;;4974863;28;20039;-50
2023/05/12 09:47:38;;;;;;;8.57;2.92;;;;;;;;;;4972662;28;20023;-50
2023/05/12 09:50:06;;;;;;;9.63;2.97;;;;;;;;;;4955280;28;20669;-53
2023/05/12 09:52:37;;;;;;;13.63;3.03;;;;;;;;;;4972469;28;20041;-50
2023/05/12 09:55:08;;;;;;;10.90;3.33;;;;;;;;;;4972824;28;20133;-50
2023/05/12 09:57:42;;;;;;;7.82;3.17;;;;;;;;;;4972983;28;20057;-50
2023/05/12 10:00:10;;;;;;;6.47;2.75;;;;;;;;;;4972078;28;20122;-50
2023/05/12 10:02:43;;;;;;;8.32;2.85;;;;;;;;;;4972082;28;20546;-52
2023/05/12 10:05:15;;;;;;;5.60;2.55;;;;;;;;;;4972123;28;20449;-51
2023/05/12 10:07:45;;;;;;;9.20;3.28;;;;;;;;;;4982746;28;20068;-49
2023/05/12 10:10:14;;;;;;;12.02;3.03;;;;;;;;;;4991954;28;20030;-47
2023/05/12 10:12:41;;;;;;;11.07;2.95;;;;;;;;;;4991615;28;20034;-47
2023/05/12 10:15:10;;;;;;;6.70;3.10;;;;;;;;;;4973740;28;20485;-46
2023/05/12 10:17:37;;;;;;;11.07;2.70;;;;;;;;;;4991038;28;20065;-48
2023/05/12 10:20:05;;;;;;;8.35;2.60;;;;;;;;;;4990168;28;20105;-52
2023/05/12 10:22:39;;;;;;;6.43;2.65;;;;;;;;;;4991676;28;20065;-51
2023/05/12 10:25:07;;;;;;;5.88;2.22;;;;;;;;;;4991806;28;20047;-52
2023/05/12 10:27:34;;;;;;;6.00;2.33;;;;;;;;;;4991717;28;20089;-54
2023/05/12 10:30:03;;;;;;;7.18;2.33;;;;;;;;;;4989349;28;20027;-51
2023/05/12 10:32:30;;;;;;;8.07;2.90;;;;;;;;;;4991028;28;20026;-49
2023/05/12 10:35:07;;;;;;;12.48;2.80;;;;;;;;;;4991035;28;20034;-47
2023/05/12 10:37:36;;;;;;;7.43;2.50;;;;;;;;;;4990885;28;20121;-53
2023/05/12 10:40:03;;;;;;;10.18;2.80;;;;;;;;;;4989479;28;20042;-52
2023/05/12 10:42:37;;;;;;;8.63;2.50;;;;;;;;;;4991166;28;20026;-53
2023/05/12 10:45:15;;;;;;;8.38;2.58;;;;;;;;;;4991252;28;20110;-51
2023/05/12 10:47:43;;;;;;;8.25;2.50;;;;;;;;;;4989522;28;20396;-51
2023/05/12 10:50:13;;;;;;;8.60;2.45;;;;;;;;;;4988659;28;20041;-53
2023/05/12 10:53:00;;;;;;;6.28;2.47;;;;;;;;;;4990273;28;20465;-48
2023/05/12 10:55:34;;;;;;;6.10;2.63;;;;;;;;;;4987839;28;20112;-53
2023/05/12 10:58:05;;;;;;;7.15;2.65;;;;;;;;;;4989958;28;20112;-52
2023/05/12 11:00:42;;;;;;;5.82;2.40;;;;;;;;;;4989501;28;20037;-52
2023/05/12 11:03:11;;;;;;;6.95;2.33;;;;;;;;;;4987720;28;20133;-52
2023/05/12 11:05:38;;;;;;;7.45;2.63;;;;;;;;;;4988281;28;20488;-49
2023/05/12 11:08:05;;;;;;;8.70;2.40;;;;;;;;;;4990469;28;20038;-50
2023/05/12 11:10:32;;;;;;;6.97;2.53;;;;;;;;;;4990551;28;20057;-55
2023/05/12 11:13:00;;;;;;;15.10;2.75;;;;;;;;;;4992467;28;20048;-56
2023/05/12 11:15:27;;;;;;;9.68;2.40;;;;;;;;;;4994415;28;20042;-50
2023/05/12 11:17:54;;;;;;;35.13;3.70;;;;;;;;;;4987272;28;20053;-51
2023/05/12 11:20:25;;;;;;;49.17;4.13;;;;;;;;;;4983932;28;20023;-55
2023/05/12 11:22:53;;;;;;;154.98;10.70;;;;;;;;;;4983292;28;20048;-48
2023/05/12 11:25:21;;;;;;;304.48;19.23;;;;;;;;;;4984628;28;20476;-50
2023/05/12 11:27:50;;;;;;;127.18;9.18;;;;;;;;;;4985139;28;20031;-51
2023/05/12 11:30:18;;;;;;;76.72;6.65;;;;;;;;;;4984128;28;20495;-50
2023/05/12 11:32:45;;;;;;;49.75;6.57;;;;;;;;;;4983909;28;20118;-48
2023/05/12 11:35:12;;;;;;;34.47;4.97;;;;;;;;;;4985321;28;20053;-48
2023/05/12 11:37:40;;;;;;;29.98;4.63;;;;;;;;;;4977537;28;20042;-48
2023/05/12 11:40:14;;;;;;;21.48;3.88;;;;;;;;;;4977146;28;20034;-47
2023/05/12 11:42:45;;;;;;;127.13;20.17;;;;;;;;;;4993864;28;20077;-51
2023/05/12 11:45:21;;;;;;;117.00;20.70;;;;;;;;;;4994276;28;20034;-51
2023/05/12 11:47:48;;;;;;;109.65;21.58;;;;;;;;;;4985390;28;20064;-49
2023/05/12 11:50:24;;;;;;;57.40;12.90;;;;;;;;;;4983077;28;20081;-51
2023/05/12 11:52:52;;;;;;;65.38;12.80;;;;;;;;;;4988436;28;20057;-47
2023/05/12 11:55:22;;;;;;;82.57;14.95;;;;;;;;;;4993783;28;20129;-48
2023/05/12 11:57:59;;;;;;;78.93;14.45;;;;;;;;;;4993912;28;20038;-50
2023/05/12 12:00:31;;;;;;;77.10;14.60;;;;;;;;;;4994120;28;20026;-51
2023/05/12 12:03:12;;;;;;;85.60;16.52;;;;;;;;;;4993411;28;20044;-51
2023/05/12 12:05:40;;;;;;;70.38;14.38;;;;;;;;;;4993766;28;20558;-49
2023/05/12 12:08:12;;;;;;;79.43;15.05;;;;;;;;;;4994091;28;20377;-50
2023/05/12 12:10:39;;;;;;;65.32;13.43;;;;;;;;;;4994021;28;20066;-52
2023/05/12 12:13:06;;;;;;;70.50;13.50;;;;;;;;;;4982803;28;20026;-50
2023/05/12 12:15:33;;;;;;;65.75;14.02;;;;;;;;;;4983401;28;20074;-52
2023/05/12 12:18:00;;;;;;;41.88;8.80;;;;;;;;;;4990742;28;20049;-51
2023/05/12 12:20:27;;;;;;;45.70;9.50;;;;;;;;;;4993824;28;20061;-48
2023/05/12 12:22:54;;;;;;;48.83;10.02;;;;;;;;;;4992999;28;20515;-48
2023/05/12 12:25:22;;;;;;;45.22;9.38;;;;;;;;;;4983187;28;20137;-48
2023/05/12 12:27:49;;;;;;;46.45;9.38;;;;;;;;;;4974099;28;20031;-52
2023/05/12 12:30:16;;;;;;;44.70;9.85;;;;;;;;;;4974222;28;20090;-51
2023/05/12 12:32:44;;;;;;;54.05;10.07;;;;;;;;;;4974076;28;20041;-48
2023/05/12 12:35:12;;;;;;;49.58;8.90;;;;;;;;;;4973998;28;20122;-47
2023/05/12 12:37:39;;;;;;;41.25;9.02;;;;;;;;;;4973962;28;20031;-50
2023/05/12 12:40:07;;;;;;;42.20;8.68;;;;;;;;;;4973818;28;20027;-48
2023/05/12 12:42:35;;;;;;;41.78;8.95;;;;;;;;;;4974003;28;20053;-47
2023/05/12 12:45:03;;;;;;;44.17;8.70;;;;;;;;;;4973912;28;20189;-50
2023/05/12 12:47:30;;;;;;;41.55;8.27;;;;;;;;;;4974010;28;20548;-49
2023/05/12 12:49:58;;;;;;;39.17;8.15;;;;;;;;;;4973920;28;20045;-52
2023/05/12 12:52:25;;;;;;;41.95;7.57;;;;;;;;;;4973679;28;20471;-48
2023/05/12 12:54:53;;;;;;;53.42;9.18;;;;;;;;;;4973705;28;20031;-47
2023/05/12 12:57:21;;;;;;;47.28;8.27;;;;;;;;;;4973474;28;20151;-47
2023/05/12 12:59:49;;;;;;;41.92;7.18;;;;;;;;;;4973599;28;20089;-49
2023/05/12 13:02:16;;;;;;;47.42;7.90;;;;;;;;;;4973507;28;20038;-48
2023/05/12 13:04:43;;;;;;;37.20;8.27;;;;;;;;;;4973562;28;20084;-48
2023/05/12 13:07:10;;;;;;;42.30;7.22;;;;;;;;;;4973486;28;20037;-47
2023/05/12 13:09:37;;;;;;;37.60;6.80;;;;;;;;;;4973499;28;20026;-47
2023/05/12 13:12:04;;;;;;;46.58;7.60;;;;;;;;;;4973420;28;20489;-48
2023/05/12 13:14:31;;;;;;;55.75;7.53;;;;;;;;;;4973355;28;20023;-52
2023/05/12 13:46:18;;;;;;;38.35;5.35;;;;;;;;;;4979177;28;20054;-51
2023/05/12 13:48:45;;;;;;;33.47;5.22;;;;;;;;;;4992509;28;20023;-49
2023/05/12 13:51:12;;;;;;;46.90;6.20;;;;;;;;;;4992379;28;20033;-49
2023/05/12 13:53:41;;;;;;;45.30;6.00;;;;;;;;;;4992191;28;20038;-51
2023/05/12 13:56:08;;;;;;;32.38;5.20;;;;;;;;;;4991970;28;20050;-52
2023/05/12 13:58:35;;;;;;;48.40;6.30;;;;;;;;;;4991146;28;20398;-50
2023/05/12 14:01:02;;;;;;;56.42;5.63;;;;;;;;;;4991692;28;20042;-51
2023/05/12 14:03:29;;;;;;;35.70;4.93;;;;;;;;;;4992133;28;20369;-49
2023/05/12 14:05:56;;;;;;;35.13;4.43;;;;;;;;;;4992071;28;20034;-51
2023/05/12 14:08:23;;;;;;;32.67;4.80;;;;;;;;;;4974716;28;20031;-49
2023/05/12 14:10:50;;;;;;;26.85;4.38;;;;;;;;;;4992074;28;20030;-52
2023/05/12 14:13:17;;;;;;;29.02;5.35;;;;;;;;;;4991992;28;20022;-50
2023/05/12 14:15:44;;;;;;;37.35;5.13;;;;;;;;;;4991946;28;20045;-47
2023/05/12 14:18:11;;;;;;;44.03;5.03;;;;;;;;;;4991975;28;20038;-48
2023/05/12 14:20:38;;;;;;;36.50;4.50;;;;;;;;;;4992093;28;20073;-47
2023/05/12 14:23:06;;;;;;;33.20;4.32;;;;;;;;;;4988617;28;20026;-48
2023/05/12 14:25:33;;;;;;;43.15;4.38;;;;;;;;;;4991429;28;20183;-48
2023/05/12 14:28:00;;;;;;;24.52;3.63;;;;;;;;;;4991935;28;20072;-48
2023/05/12 14:30:26;;;;;;;34.88;4.00;;;;;;;;;;4991954;28;20034;-48
2023/05/12 14:32:54;;;;;;;42.25;4.97;;;;;;;;;;4991830;28;20029;-47
2023/05/12 14:35:21;;;;;;;41.17;4.55;;;;;;;;;;4991068;28;20035;-51
2023/05/12 14:37:48;;;;;;;43.20;4.22;;;;;;;;;;4991667;28;20030;-49
2023/05/12 14:40:15;;;;;;;38.78;5.07;;;;;;;;;;4991911;28;20149;-52
2023/05/12 14:42:42;;;;;;;34.10;3.80;;;;;;;;;;4991817;28;20030;-49
2023/05/12 14:45:09;;;;;;;29.48;4.18;;;;;;;;;;4991860;28;20034;-47
2023/05/12 14:47:36;;;;;;;28.05;4.50;;;;;;;;;;4994725;28;20114;-48
2023/05/12 14:50:03;;;;;;;29.10;4.05;;;;;;;;;;4995447;28;20031;-47
2023/05/12 14:52:36;;;;;;;40.13;4.18;;;;;;;;;;4995463;28;20027;-48
2023/05/12 14:55:05;;;;;;;43.38;4.38;;;;;;;;;;4995224;28;20035;-47
2023/05/12 14:57:34;;;;;;;57.95;5.50;;;;;;;;;;4995251;28;20027;-47
2023/05/12 15:00:01;;;;;;;39.13;4.15;;;;;;;;;;4994636;28;20400;-49
2023/05/12 15:02:28;;;;;;;58.28;5.55;;;;;;;;;;4994662;28;20677;-50